Shikarpur Weather



Shikarpur's Current Weather

Temprature 31o haze

haze

Rain: 0 %

Min Temprature31o
Max Temprature31o
Humidity52
Wind Speed4.1 m/h
Sun Rise06:27:00
Sun Set17:54:09
Current Time: 18-Oct-2019 16:04:00
Lat/Lon: 27.96, 68.63




Shikarpur's Geo Location



Shikarpur's Weather Forecast

Time Overall Temp Min Temp Max Temp Humidity Wind Speed Rain
18-Oct-2019 (Fri)
17:00:00 clear sky 30.320 30.320 36.640 7 3.6 m/h 0 %
20:00:00 clear sky 24.270 24.270 29.010 11 4.25 m/h 0 %
23:00:00 clear sky 24.410 24.410 27.568 12 4.21 m/h 0 %
19-Oct-2019 (Sat)
02:00:00 clear sky 24.850 24.850 26.428 33 5.07 m/h 0 %
05:00:00 clear sky 25.073 25.073 25.073 38 5.04 m/h 0 %
08:00:00 clear sky 27.141 27.141 27.141 33 6.77 m/h 0 %
11:00:00 clear sky 34.520 34.520 34.520 19 5.03 m/h 0 %
14:00:00 clear sky 37.366 37.366 37.366 13 4.21 m/h 0 %
17:00:00 clear sky 35.852 35.852 35.852 13 3.44 m/h 0 %
20:00:00 clear sky 27.648 27.648 27.648 22 2 m/h 0 %
23:00:00 scattered clouds 26.857 26.857 26.857 23 1.57 m/h 0 %
20-Oct-2019 (Sun)
02:00:00 overcast clouds 25.757 25.757 25.757 25 2.36 m/h 0 %
05:00:00 broken clouds 24.544 24.544 24.544 29 2.3 m/h 0 %
08:00:00 clear sky 28.042 28.042 28.042 25 4.25 m/h 0 %
11:00:00 clear sky 35.190 35.190 35.190 15 3.02 m/h 0 %
14:00:00 clear sky 37.652 37.652 37.652 11 2.04 m/h 0 %
17:00:00 clear sky 35.988 35.988 35.988 11 1.54 m/h 0 %
20:00:00 clear sky 28.732 28.732 28.732 17 2.3 m/h 0 %
23:00:00 clear sky 26.447 26.447 26.447 20 0.34 m/h 0 %
21-Oct-2019 (Mon)
02:00:00 clear sky 25.640 25.640 25.640 20 0.51 m/h 0 %
05:00:00 clear sky 24.661 24.661 24.661 21 0.99 m/h 0 %
08:00:00 clear sky 28.669 28.669 28.669 17 0.82 m/h 0 %
11:00:00 clear sky 36.547 36.547 36.547 10 2.19 m/h 0 %
14:00:00 clear sky 38.265 38.265 38.265 8 2.7 m/h 0 %
17:00:00 clear sky 36.484 36.484 36.484 9 1.75 m/h 0 %
20:00:00 clear sky 28.704 28.704 28.704 16 1.73 m/h 0 %
23:00:00 clear sky 26.210 26.210 26.210 20 0.67 m/h 0 %
22-Oct-2019 (Tue)
02:00:00 clear sky 25.356 25.356 25.356 22 2.04 m/h 0 %
05:00:00 clear sky 23.439 23.439 23.439 27 0.94 m/h 0 %
08:00:00 clear sky 27.332 27.332 27.332 27 1.89 m/h 0 %
11:00:00 clear sky 35.949 35.949 35.949 13 2.34 m/h 0 %
14:00:00 clear sky 38.479 38.479 38.479 8 2.6 m/h 0 %
17:00:00 clear sky 36.602 36.602 36.602 8 2.77 m/h 0 %
20:00:00 clear sky 28.550 28.550 28.550 14 1.67 m/h 0 %
23:00:00 clear sky 27.669 27.669 27.669 17 1.98 m/h 0 %
23-Oct-2019 (Wed)
02:00:00 clear sky 25.086 25.086 25.086 21 2.53 m/h 0 %
05:00:00 clear sky 23.897 23.897 23.897 22 2.46 m/h 0 %
08:00:00 clear sky 27.469 27.469 27.469 17 1.62 m/h 0 %
11:00:00 clear sky 35.685 35.685 35.685 9 3.69 m/h 0 %
14:00:00 clear sky 37.889 37.889 37.889 6 4.88 m/h 0 %

Famous Cities (61)